Time;durP1;ratioP1;P1;durP2;ratioP2;P2;SDS_P1;SDS_P2;PMS_P1;PMS_P2;Temp;Humidity;BMP_temperature;BMP_pressure;BME280_temperature;BME280_humidity;BME280_pressure;Samples;Min_cycle;Max_cycle;Signal;HPM_P1;HPM_P2
2021/12/13 00:01:25;;;;;;;94.30;27.08;;;;;;;0.81;61.54;100962.81;5148910;27;20129;-70
2021/12/13 00:03:59;;;;;;;94.45;30.08;;;;;;;0.78;61.66;100965.47;5148524;27;20455;-70
2021/12/13 00:06:30;;;;;;;96.45;29.42;;;;;;;0.79;61.79;100951.56;5147826;27;20046;-70
2021/12/13 00:09:01;;;;;;;121.35;35.03;;;;;;;0.79;61.95;100964.56;5150210;27;20259;-70
2021/12/13 00:11:33;;;;;;;104.70;31.13;;;;;;;0.79;61.99;100961.97;5148260;27;20085;-70
2021/12/13 00:14:07;;;;;;;98.35;30.77;;;;;;;0.78;61.71;100957.69;5150063;27;20055;-70
2021/12/13 00:16:49;;;;;;;77.07;28.02;;;;;;;0.76;61.78;100949.91;5149609;27;20387;-70
2021/12/13 00:19:20;;;;;;;109.45;33.20;;;;;;;0.76;61.61;100952.50;5148989;27;20049;-71
2021/12/13 00:21:56;;;;;;;96.10;31.13;;;;;;;0.76;61.66;100955.09;5148611;27;20445;-70
2021/12/13 00:24:26;;;;;;;92.20;30.73;;;;;;;0.71;61.53;100969.94;5149753;27;20039;-70
2021/12/13 00:27:02;;;;;;;101.57;29.65;;;;;;;0.63;61.65;100983.97;5146681;27;20047;-73
2021/12/13 00:29:34;;;;;;;78.93;25.85;;;;;;;0.58;61.97;100991.88;5126344;27;20386;-70
2021/12/13 00:32:11;;;;;;;79.47;26.75;;;;;;;0.57;61.95;100988.41;5127889;27;20044;-73
2021/12/13 00:34:42;;;;;;;100.10;30.13;;;;;;;0.59;61.90;100982.34;5128308;27;20122;-69
2021/12/13 00:37:14;;;;;;;91.43;26.98;;;;;;;0.62;61.94;100977.06;5128199;27;20039;-70
2021/12/13 00:39:50;;;;;;;84.25;27.85;;;;;;;0.58;61.80;100991.88;5127687;27;20078;-70
2021/12/13 00:42:19;;;;;;;92.65;31.75;;;;;;;0.57;61.48;100990.16;5127214;27;20486;-70
2021/12/13 00:44:50;;;;;;;83.00;28.45;;;;;;;0.54;61.75;100985.88;5127718;27;20051;-70
2021/12/13 00:47:23;;;;;;;78.13;25.88;;;;;;;0.45;61.85;100988.66;5126359;27;20070;-71
2021/12/13 00:49:55;;;;;;;75.85;28.25;;;;;;;0.40;61.70;100987.88;5126678;27;20047;-70
2021/12/13 00:52:23;;;;;;;56.95;24.55;;;;;;;0.39;61.60;100988.75;5127651;27;20059;-69
2021/12/13 00:54:53;;;;;;;70.57;24.77;;;;;;;0.32;61.74;100992.34;5126865;27;20640;-70
2021/12/13 00:57:43;;;;;;;65.88;26.85;;;;;;;0.33;62.02;100997.53;5124146;27;20053;-71
2021/12/13 01:00:19;;;;;;;68.43;23.23;;;;;;;0.32;61.94;101008.78;5126503;27;20825;-72
2021/12/13 01:02:54;;;;;;;85.03;26.05;;;;;;;0.25;61.78;101014.13;5127002;27;20035;-70
2021/12/13 01:05:40;;;;;;;71.32;25.70;;;;;;;0.18;62.02;101006.47;5129559;27;20053;-71
2021/12/13 01:08:43;;;;;;;66.65;24.75;;;;;;;0.13;61.99;101007.44;5127397;27;20057;-69
2021/12/13 01:11:31;;;;;;;69.30;20.23;;;;;;;0.06;61.91;101003.22;5128402;27;20047;-70
2021/12/13 01:14:15;;;;;;;61.13;22.17;;;;;;;0.03;61.99;100998.06;5127872;27;20065;-71
2021/12/13 01:17:00;;;;;;;67.85;22.52;;;;;;;0.00;61.77;101009.38;5126395;27;20058;-70
2021/12/13 01:19:48;;;;;;;106.53;28.45;;;;;;;-0.05;61.57;101008.59;5126784;27;20043;-69
2021/12/13 01:22:45;;;;;;;52.80;20.38;;;;;;;-0.16;61.90;101000.09;5125012;27;20053;-70
2021/12/13 01:25:36;;;;;;;53.17;22.23;;;;;;;-0.17;61.93;101001.84;5127154;27;20139;-70
2021/12/13 01:28:08;;;;;;;56.00;21.00;;;;;;;-0.21;61.60;101005.38;5126276;27;20146;-70
2021/12/13 01:30:40;;;;;;;51.88;19.35;;;;;;;-0.24;61.67;101000.22;5126749;28;20044;-71
2021/12/13 01:33:10;;;;;;;52.70;18.58;;;;;;;-0.31;61.70;101012.44;5126469;28;20047;-69
2021/12/13 01:35:44;;;;;;;49.70;19.40;;;;;;;-0.32;61.94;101007.31;5127188;28;20047;-70
2021/12/13 01:38:16;;;;;;;52.80;20.77;;;;;;;-0.33;61.63;101010.75;5126892;28;20122;-70
2021/12/13 01:40:47;;;;;;;48.72;20.13;;;;;;;-0.35;61.61;101018.56;5126909;28;20134;-69
2021/12/13 01:43:17;;;;;;;70.25;22.25;;;;;;;-0.35;61.83;101018.56;5126059;28;20045;-69
2021/12/13 01:45:47;;;;;;;56.90;20.58;;;;;;;-0.40;61.78;101010.00;5127740;28;20039;-70
2021/12/13 01:48:22;;;;;;;53.33;22.08;;;;;;;-0.41;61.79;101014.34;5129196;28;20061;-70
2021/12/13 01:50:53;;;;;;;41.37;15.83;;;;;;;-0.34;61.32;101009.91;5127053;28;20730;-69
2021/12/13 01:53:32;;;;;;;58.88;23.02;;;;;;;-0.42;61.79;100999.63;5125891;28;20764;-70
2021/12/13 01:56:09;;;;;;;57.22;23.15;;;;;;;-0.43;61.50;101004.88;5127097;28;20055;-70
2021/12/13 01:58:42;;;;;;;61.45;21.30;;;;;;;-0.48;61.82;100996.28;5124693;28;20047;-70
2021/12/13 02:01:14;;;;;;;57.47;20.30;;;;;;;-0.55;61.68;100994.66;5126700;27;20051;-69
2021/12/13 02:04:01;;;;;;;47.47;18.67;;;;;;;-0.55;61.83;101002.44;5126794;28;20132;-70
2021/12/13 02:06:35;;;;;;;59.83;23.00;;;;;;;-0.59;61.46;100991.25;5126032;28;20090;-69
2021/12/13 02:09:08;;;;;;;61.33;19.92;;;;;;;-0.63;61.81;100994.75;5126731;28;20105;-70
2021/12/13 02:11:36;;;;;;;55.08;18.42;;;;;;;-0.70;61.68;100991.41;5126962;28;20047;-70
2021/12/13 02:14:11;;;;;;;75.63;23.63;;;;;;;-0.70;61.69;101000.91;5126248;28;20678;-70
2021/12/13 02:16:57;;;;;;;47.80;15.63;;;;;;;-0.67;61.52;100991.34;5125721;28;20051;-70
2021/12/13 02:19:32;;;;;;;65.32;24.27;;;;;;;-0.68;61.66;100987.06;5126287;28;20067;-69
2021/12/13 02:22:32;;;;;;;81.40;30.15;;;;;;;-0.71;61.80;100996.63;5125504;28;20077;-70
2021/12/13 02:25:04;;;;;;;63.13;22.33;;;;;;;-0.73;61.76;101007.00;5127113;28;20382;-71
2021/12/13 02:27:35;;;;;;;75.70;21.10;;;;;;;-0.79;61.68;101001.91;5125009;28;20047;-70
2021/12/13 02:30:13;;;;;;;63.58;24.38;;;;;;;-0.74;61.71;100999.25;5126148;28;20699;-69
2021/12/13 02:32:42;;;;;;;52.63;19.73;;;;;;;-0.72;61.77;100989.69;5126998;27;20088;-70
2021/12/13 02:35:11;;;;;;;56.17;18.65;;;;;;;-0.72;61.42;100981.91;5129313;27;20050;-71
2021/12/13 02:37:43;;;;;;;56.10;18.15;;;;;;;-0.78;61.57;100972.50;5131161;27;20053;-69
2021/12/13 02:40:12;;;;;;;68.95;18.85;;;;;;;-0.84;61.68;100975.19;5129790;27;20650;-70
2021/12/13 02:42:39;;;;;;;47.20;18.85;;;;;;;-0.90;61.82;100972.66;5130643;27;20122;-71
2021/12/13 02:45:14;;;;;;;46.50;14.90;;;;;;;-0.89;61.93;100976.97;5130647;27;20054;-70
2021/12/13 02:47:47;;;;;;;50.10;18.80;;;;;;;-0.90;61.79;100973.53;5129442;27;20083;-70
2021/12/13 02:50:19;;;;;;;41.90;17.23;;;;;;;-0.92;61.70;100969.22;5129524;27;20050;-70
2021/12/13 02:52:47;;;;;;;40.53;17.27;;;;;;;-0.94;61.81;100977.03;5129751;27;20043;-69
2021/12/13 02:55:23;;;;;;;47.17;15.65;;;;;;;-0.99;61.70;100973.63;5129925;27;20065;-70
2021/12/13 02:57:54;;;;;;;59.17;17.67;;;;;;;-0.99;61.77;100965.84;5127915;27;20324;-70
2021/12/13 03:00:24;;;;;;;60.33;18.75;;;;;;;-0.97;61.72;100971.91;5129941;27;20605;-70
2021/12/13 03:02:55;;;;;;;54.20;19.35;;;;;;;-0.90;61.65;100972.66;5130057;27;20043;-69
2021/12/13 03:05:26;;;;;;;49.30;19.63;;;;;;;-0.88;61.49;100973.50;5129672;27;20546;-70
2021/12/13 03:08:01;;;;;;;46.88;18.50;;;;;;;-1.00;61.85;100969.34;5129808;27;20046;-69
2021/12/13 03:10:30;;;;;;;;;;;;;;;-0.93;61.45;100973.56;5130236;27;20712;-69
2021/12/13 03:12:58;;;;;;;33.00;14.60;;;;;;;-1.10;61.44;100973.78;5128838;27;20010;-69
2021/12/13 03:15:27;;;;;;;65.50;24.40;;;;;;;-1.12;62.02;100974.69;5129351;27;20047;-68
2021/12/13 03:17:58;;;;;;;42.95;15.48;;;;;;;-1.14;61.83;100979.03;5130051;27;20606;-69
2021/12/13 03:20:45;;;;;;;65.75;19.13;;;;;;;-1.23;61.87;100972.22;5128596;27;20126;-70
2021/12/13 03:23:23;;;;;;;41.47;17.08;;;;;;;-1.18;61.85;100980.81;5129258;27;20053;-70
2021/12/13 03:26:24;;;;;;;47.60;17.10;;;;;;;-1.05;62.01;100973.72;5129567;27;20043;-70
2021/12/13 03:29:12;;;;;;;44.05;14.23;;;;;;;-0.99;61.49;100982.28;5127596;27;20061;-70
2021/12/13 03:31:42;;;;;;;54.15;15.15;;;;;;;-0.93;61.57;100975.31;5129309;27;20043;-70
2021/12/13 03:34:12;;;;;;;48.75;16.20;;;;;;;-0.92;61.40;100975.25;5128658;27;20053;-69
2021/12/13 03:36:51;;;;;;;45.88;17.10;;;;;;;-0.93;61.67;100976.16;5128703;27;20039;-70
2021/12/13 03:39:24;;;;;;;64.43;21.38;;;;;;;-0.92;61.49;100970.06;5132301;27;20055;-70
2021/12/13 03:41:54;;;;;;;60.47;20.60;;;;;;;-0.89;61.60;100970.03;5128536;27;20061;-70
2021/12/13 03:44:29;;;;;;;48.17;17.70;;;;;;;-0.87;61.69;100975.22;5128934;27;20484;-72
2021/12/13 03:47:03;;;;;;;65.07;20.35;;;;;;;-0.83;61.73;100975.16;5128873;27;20104;-68
2021/12/13 03:49:30;;;;;;;46.95;17.02;;;;;;;-0.84;61.41;100972.59;5127724;27;20050;-69
2021/12/13 03:51:59;;;;;;;44.95;17.10;;;;;;;-0.88;61.43;100983.84;5110440;27;20492;-69
2021/12/13 03:54:29;;;;;;;38.25;16.10;;;;;;;-0.86;61.48;100972.59;5129534;27;20043;-70
2021/12/13 03:57:01;;;;;;;39.95;16.08;;;;;;;-0.89;61.37;100967.44;5128391;27;20111;-69
2021/12/13 03:59:29;;;;;;;32.45;12.18;;;;;;;-0.91;61.41;100968.38;5126572;27;20358;-69
2021/12/13 04:02:00;;;;;;;35.88;14.45;;;;;;;-1.00;61.65;100977.97;5128644;27;20047;-69
2021/12/13 04:04:32;;;;;;;42.78;14.00;;;;;;;-1.01;61.74;100971.09;5129062;27;20536;-69
2021/12/13 04:07:06;;;;;;;48.65;18.15;;;;;;;-1.02;61.63;100971.94;5128080;27;20050;-69
2021/12/13 04:09:37;;;;;;;44.28;18.52;;;;;;;-1.00;61.83;100972.78;5128147;27;20455;-70
2021/12/13 04:12:07;;;;;;;45.88;16.23;;;;;;;-1.01;61.51;100973.69;5129330;27;20043;-71
2021/12/13 04:14:41;;;;;;;49.50;17.77;;;;;;;-0.98;61.73;100971.03;5128092;27;20487;-71
2021/12/13 04:17:33;;;;;;;57.33;18.73;;;;;;;-0.92;61.66;100966.63;5128750;27;20432;-70
2021/12/13 04:20:01;;;;;;;53.85;18.52;;;;;;;-0.85;61.45;100966.53;5128133;27;20055;-72
2021/12/13 04:22:32;;;;;;;50.60;16.50;;;;;;;-0.85;61.27;100976.03;5128585;27;20082;-70
2021/12/13 04:25:04;;;;;;;34.42;13.30;;;;;;;-0.92;61.41;100974.41;5128356;27;20043;-69
2021/12/13 04:27:35;;;;;;;37.17;14.00;;;;;;;-0.93;61.62;100972.72;5126560;27;20043;-69
2021/12/13 04:30:13;;;;;;;33.60;15.25;;;;;;;-0.93;61.86;100975.31;5127319;27;20135;-69
2021/12/13 04:32:46;;;;;;;26.65;11.20;;;;;;;-0.93;61.54;100977.91;5127936;27;20053;-70
2021/12/13 04:35:15;;;;;;;46.83;17.92;;;;;;;-0.97;61.77;100977.94;5127239;27;20057;-74
2021/12/13 04:37:45;;;;;;;39.38;13.10;;;;;;;-0.93;61.29;100968.38;5127357;27;20047;-69
2021/12/13 04:40:17;;;;;;;41.75;14.85;;;;;;;-0.92;61.71;100974.41;5128028;27;20650;-69
2021/12/13 04:42:49;;;;;;;50.42;16.05;;;;;;;-0.93;61.81;100978.75;5128893;27;20507;-68
2021/12/13 04:45:19;;;;;;;38.03;12.50;;;;;;;-0.95;61.46;100980.50;5127624;27;20046;-69
2021/12/13 04:47:54;;;;;;;41.95;11.90;;;;;;;-1.00;61.70;100985.75;5127810;27;20043;-69
2021/12/13 04:50:26;;;;;;;39.33;11.25;;;;;;;-1.00;61.70;100988.34;5127236;27;20590;-70
2021/12/13 04:52:54;;;;;;;26.60;12.82;;;;;;;-1.02;61.77;100990.09;5128936;27;20637;-69
2021/12/13 04:55:25;;;;;;;37.35;13.63;;;;;;;-1.02;61.47;100984.91;5127731;27;20053;-71
2021/12/13 04:57:55;;;;;;;32.25;12.80;;;;;;;-1.04;61.94;100986.69;5125995;27;20118;-70
2021/12/13 05:00:28;;;;;;;30.80;11.32;;;;;;;-0.99;61.52;100986.59;5128011;27;20121;-70
2021/12/13 05:02:58;;;;;;;27.80;12.57;;;;;;;-0.94;61.50;100978.78;5126637;27;20082;-70
2021/12/13 05:05:26;;;;;;;32.30;12.25;;;;;;;-0.99;61.68;100982.28;5126891;27;20039;-72
2021/12/13 05:07:54;;;;;;;31.20;13.15;;;;;;;-0.99;61.52;100978.81;5127911;27;20043;-72
2021/12/13 05:10:25;;;;;;;33.00;11.70;;;;;;;-1.00;61.78;100983.16;5127612;27;20058;-70
2021/12/13 05:13:04;;;;;;;32.15;12.50;;;;;;;-1.00;61.47;100992.69;5127768;27;20100;-71
2021/12/13 05:15:33;;;;;;;33.35;10.85;;;;;;;-1.02;61.34;100987.50;5127144;27;20627;-71
2021/12/13 05:18:05;;;;;;;40.13;12.18;;;;;;;-0.99;61.43;100984.00;5106209;28;20054;-74
2021/12/13 05:20:35;;;;;;;30.60;12.00;;;;;;;-1.02;61.35;100991.84;5109871;27;20057;-70
2021/12/13 05:23:06;;;;;;;34.95;12.40;;;;;;;-1.06;61.42;100984.97;5109771;28;20479;-74
2021/12/13 05:25:40;;;;;;;23.92;12.23;;;;;;;-1.06;61.55;100984.97;5091864;28;20129;-71
2021/12/13 05:28:11;;;;;;;34.30;12.90;;;;;;;-1.11;61.37;100985.03;5107252;27;20100;-70
2021/12/13 05:30:44;;;;;;;30.77;11.38;;;;;;;-1.16;61.86;100982.47;5109130;28;20035;-72
2021/12/13 05:33:15;;;;;;;24.40;9.52;;;;;;;-1.22;61.79;100987.75;5112825;28;20047;-72
2021/12/13 05:35:46;;;;;;;28.90;10.20;;;;;;;-1.28;61.81;100984.38;5117541;28;20039;-69
2021/12/13 05:38:26;;;;;;;28.13;11.85;;;;;;;-1.26;61.78;100999.03;5114356;28;20475;-70
2021/12/13 05:40:56;;;;;;;31.60;11.65;;;;;;;-1.26;61.99;100998.16;5105366;28;20052;-70
2021/12/13 05:43:26;;;;;;;37.17;12.48;;;;;;;-1.23;61.78;101005.91;5106785;28;20096;-72
2021/12/13 05:45:58;;;;;;;26.13;10.63;;;;;;;-1.21;61.40;101004.16;5104732;28;20050;-70
2021/12/13 05:48:39;;;;;;;28.98;12.00;;;;;;;-1.21;61.76;101006.75;5106381;28;20087;-72
2021/12/13 05:51:10;;;;;;;30.60;12.57;;;;;;;-1.19;61.78;101003.28;5106131;28;20127;-76
2021/12/13 05:53:39;;;;;;;31.85;11.98;;;;;;;-1.17;61.47;101005.81;5089917;28;20122;-72
2021/12/13 05:56:11;;;;;;;32.20;12.90;;;;;;;-1.11;61.78;101008.38;5125304;28;20043;-69
2021/12/13 05:58:43;;;;;;;36.50;13.25;;;;;;;-1.08;61.29;101005.75;5124020;28;20049;-70
2021/12/13 06:01:16;;;;;;;33.60;13.00;;;;;;;-1.06;61.57;101005.69;5105204;28;20101;-71
2021/12/13 06:03:52;;;;;;;45.88;16.45;;;;;;;-1.03;61.28;101016.88;5111006;28;20044;-74
2021/12/13 06:06:25;;;;;;;33.42;14.63;;;;;;;-1.01;61.48;101014.28;5103028;28;20130;-68
2021/12/13 06:08:55;;;;;;;40.35;13.68;;;;;;;-0.97;61.39;101028.94;5107890;28;20055;-70
2021/12/13 06:11:32;;;;;;;27.98;11.45;;;;;;;-0.97;61.34;101028.94;5108213;28;20048;-69
2021/12/13 06:14:03;;;;;;;43.42;14.45;;;;;;;-0.98;61.21;101022.88;5127671;27;20141;-71
2021/12/13 06:16:44;;;;;;;43.50;13.07;;;;;;;-0.97;61.36;101028.94;5129318;27;20039;-71
2021/12/13 06:19:20;;;;;;;36.75;12.45;;;;;;;-0.95;61.61;101034.97;5130177;27;20047;-68
2021/12/13 06:22:01;;;;;;;41.33;13.82;;;;;;;-0.92;61.48;101034.06;5128417;27;20118;-69
2021/12/13 06:24:30;;;;;;;37.05;12.40;;;;;;;-0.89;61.38;101036.63;5127829;27;20122;-70
2021/12/13 06:27:09;;;;;;;40.90;13.93;;;;;;;-0.93;61.69;101043.59;5120410;27;20047;-70
2021/12/13 06:30:08;;;;;;;38.45;13.25;;;;;;;-0.92;61.53;101052.22;5106279;28;20066;-70
2021/12/13 06:32:44;;;;;;;34.70;14.05;;;;;;;-0.89;61.27;101049.59;5024713;28;20045;-70
2021/12/13 06:35:38;;;;;;;38.20;13.63;;;;;;;-0.86;61.55;101044.38;5022803;28;20045;-69
2021/12/13 06:38:42;;;;;;;55.05;14.82;;;;;;;-0.81;61.63;101050.34;5022724;28;20056;-70
2021/12/13 06:41:38;;;;;;;34.83;13.70;;;;;;;-0.78;61.42;101048.56;5022036;28;20132;-71
2021/12/13 06:44:18;;;;;;;41.70;14.52;;;;;;;-0.69;61.37;101044.16;5029309;28;20792;-69
2021/12/13 06:46:51;;;;;;;45.00;14.75;;;;;;;-0.61;61.08;101043.16;5060391;28;20041;-70
2021/12/13 06:49:24;;;;;;;45.30;17.48;;;;;;;-0.55;61.03;101051.75;5058538;28;20800;-68
2021/12/13 06:51:56;;;;;;;57.60;18.23;;;;;;;-0.53;61.31;101056.03;5062577;28;20052;-67
2021/12/13 06:54:31;;;;;;;42.38;16.63;;;;;;;-0.52;61.40;101059.47;5064153;28;20736;-70
2021/12/13 06:57:01;;;;;;;46.78;16.17;;;;;;;-0.44;61.18;101068.03;5061591;28;20751;-69
2021/12/13 06:59:31;;;;;;;34.63;14.32;;;;;;;-0.38;61.27;101073.13;5060669;28;20084;-69
2021/12/13 07:02:05;;;;;;;30.70;13.65;;;;;;;-0.37;61.04;101081.78;5042305;28;20132;-71
2021/12/13 07:04:50;;;;;;;39.70;16.55;;;;;;;-0.34;61.10;101080.00;5021015;28;20513;-71
2021/12/13 07:07:19;;;;;;;35.23;15.67;;;;;;;-0.27;60.91;101086.81;5082043;28;20123;-70
2021/12/13 07:09:58;;;;;;;44.30;15.13;;;;;;;-0.21;61.05;101084.13;5107164;28;20315;-70
2021/12/13 07:12:28;;;;;;;60.42;25.02;;;;;;;-0.23;61.04;101082.44;5105816;28;20066;-70
2021/12/13 07:14:56;;;;;;;44.67;17.73;;;;;;;-0.28;61.03;101098.06;5125810;27;20138;-70
2021/12/13 07:17:30;;;;;;;34.95;14.68;;;;;;;-0.30;61.25;101089.44;5125382;27;20047;-70
2021/12/13 07:19:59;;;;;;;54.83;16.52;;;;;;;-0.24;61.20;101094.53;5125952;27;20524;-70
2021/12/13 07:22:29;;;;;;;35.38;13.60;;;;;;;-0.16;61.20;101101.38;5126364;27;20061;-70
2021/12/13 07:25:10;;;;;;;38.45;14.95;;;;;;;-0.09;60.89;101092.59;5126743;27;20428;-70
2021/12/13 07:27:43;;;;;;;41.80;14.38;;;;;;;-0.05;60.91;101094.28;5125514;27;20047;-71
2021/12/13 07:30:17;;;;;;;30.25;14.00;;;;;;;-0.07;60.86;101096.91;5125519;27;20051;-70
2021/12/13 07:32:49;;;;;;;54.72;15.05;;;;;;;-0.07;60.72;101093.47;5125660;27;20130;-70
2021/12/13 07:35:21;;;;;;;38.17;14.48;;;;;;;-0.11;61.08;101092.66;5126522;27;20047;-71
2021/12/13 07:37:51;;;;;;;39.45;14.90;;;;;;;-0.03;61.05;101097.72;5125737;27;20430;-70
2021/12/13 07:40:38;;;;;;;44.53;16.50;;;;;;;0.04;61.01;101086.34;5124521;27;20074;-70
2021/12/13 07:43:20;;;;;;;37.80;16.52;;;;;;;0.12;60.63;101089.69;5124779;27;20127;-68
2021/12/13 07:45:55;;;;;;;43.42;18.35;;;;;;;0.18;60.49;101092.19;5119720;27;20055;-68
2021/12/13 07:48:31;;;;;;;38.17;15.70;;;;;;;0.23;60.66;101099.91;5118683;27;20043;-71
2021/12/13 07:51:18;;;;;;;46.58;19.35;;;;;;;0.23;60.71;101099.91;5109878;27;20035;-71
2021/12/13 07:53:53;;;;;;;42.70;14.88;;;;;;;0.14;60.51;101103.50;5110871;27;20507;-70
2021/12/13 07:56:23;;;;;;;37.33;15.18;;;;;;;0.13;61.00;101106.13;5105085;27;20054;-70
2021/12/13 07:58:57;;;;;;;49.70;17.40;;;;;;;0.17;60.52;101115.59;5103701;28;20039;-70
2021/12/13 08:01:29;;;;;;;39.80;15.30;;;;;;;0.16;60.59;101109.56;5107217;27;20077;-70
2021/12/13 08:03:59;;;;;;;42.35;18.48;;;;;;;0.27;60.69;101118.88;5109469;27;20087;-71
2021/12/13 08:06:29;;;;;;;43.45;17.08;;;;;;;0.36;60.43;101121.34;5107811;27;20044;-80
2021/12/13 08:09:00;;;;;;;46.72;21.48;;;;;;;0.41;60.31;101123.88;5111335;27;20052;-72
2021/12/13 08:11:40;;;;;;;55.55;20.75;;;;;;;0.53;60.40;101115.88;5102843;28;20044;-71
2021/12/13 08:14:07;;;;;;;57.45;20.55;;;;;;;0.70;60.04;101115.56;5104367;28;20058;-71
2021/12/13 08:16:38;;;;;;;55.25;18.55;;;;;;;0.82;59.79;101112.75;5103927;28;20108;-72
2021/12/13 08:19:10;;;;;;;45.33;16.55;;;;;;;0.81;59.71;101117.97;5103886;28;20053;-71
2021/12/13 08:21:40;;;;;;;41.20;17.67;;;;;;;0.80;59.99;101116.28;5104513;28;20047;-73
2021/12/13 08:24:17;;;;;;;46.85;17.05;;;;;;;0.84;59.57;101123.97;5107879;27;20074;-73
2021/12/13 08:26:44;;;;;;;43.00;16.42;;;;;;;0.84;59.70;101129.19;5128352;27;20055;-72
2021/12/13 08:29:19;;;;;;;41.40;15.65;;;;;;;0.84;60.16;101130.94;5124727;27;20139;-72
2021/12/13 08:31:52;;;;;;;47.13;16.45;;;;;;;0.82;59.93;101117.94;5117857;27;20086;-74
2021/12/13 08:34:27;;;;;;;52.67;16.20;;;;;;;0.80;59.82;101122.34;5105386;28;20079;-72
2021/12/13 08:36:56;;;;;;;56.30;15.95;;;;;;;0.78;59.89;101129.31;5112554;28;20051;-73
2021/12/13 08:39:27;;;;;;;45.30;16.92;;;;;;;0.71;59.93;101127.69;5112434;28;20130;-72
2021/12/13 08:41:57;;;;;;;49.08;16.98;;;;;;;0.62;59.75;101125.25;5104234;28;20131;-70
2021/12/13 08:44:28;;;;;;;41.58;16.92;;;;;;;0.55;60.27;101120.16;5104843;28;20051;-72
2021/12/13 08:46:59;;;;;;;40.72;17.75;;;;;;;0.56;60.22;101129.69;5105215;28;20047;-71
2021/12/13 08:49:34;;;;;;;61.92;19.45;;;;;;;0.56;59.99;101132.28;5103244;28;20130;-72
2021/12/13 08:52:08;;;;;;;51.00;17.00;;;;;;;0.59;60.05;101133.94;5119501;27;20086;-71
2021/12/13 08:54:51;;;;;;;42.20;17.23;;;;;;;0.65;59.88;101133.88;5125813;27;20054;-71
2021/12/13 08:57:43;;;;;;;38.92;16.08;;;;;;;0.67;59.82;101133.84;5124239;27;20074;-72
2021/12/13 09:00:35;;;;;;;54.28;18.15;;;;;;;0.71;59.86;101133.75;5123963;27;20043;-71
2021/12/13 09:03:22;;;;;;;40.13;18.73;;;;;;;0.76;59.98;101126.72;5080901;28;20047;-71
2021/12/13 09:05:57;;;;;;;57.15;20.63;;;;;;;0.79;59.64;101131.00;5080939;28;20048;-71
2021/12/13 09:08:30;;;;;;;55.33;20.88;;;;;;;0.83;59.65;101124.88;5081476;28;20149;-72
2021/12/13 09:11:00;;;;;;;48.72;18.50;;;;;;;0.86;59.47;101130.00;5080891;28;20271;-72
2021/12/13 09:13:41;;;;;;;42.72;17.45;;;;;;;0.94;59.82;101125.53;5081796;28;20088;-73
2021/12/13 09:16:09;;;;;;;54.55;20.85;;;;;;;1.08;59.26;101124.41;5083457;28;20254;-73
2021/12/13 09:18:39;;;;;;;46.63;18.15;;;;;;;1.09;59.12;101126.13;5082709;28;20097;-73
2021/12/13 09:21:07;;;;;;;51.25;20.27;;;;;;;1.23;59.25;101120.66;5081235;28;20300;-74
2021/12/13 09:23:41;;;;;;;49.47;17.42;;;;;;;1.31;59.08;101126.56;5082426;28;20511;-73
2021/12/13 09:26:12;;;;;;;52.72;20.75;;;;;;;1.46;58.81;101126.25;5082273;28;20048;-72
2021/12/13 09:28:45;;;;;;;54.22;21.25;;;;;;;1.52;58.75;101122.66;5080043;28;20044;-77
2021/12/13 09:31:15;;;;;;;44.67;18.83;;;;;;;1.58;58.76;101122.53;5082915;28;20500;-73
2021/12/13 09:33:49;;;;;;;57.40;21.38;;;;;;;1.55;58.51;101121.72;5084118;28;20052;-73
2021/12/13 09:36:20;;;;;;;54.38;17.38;;;;;;;1.49;58.60;101110.56;5084167;28;20044;-75
2021/12/13 09:38:58;;;;;;;46.30;19.10;;;;;;;1.50;58.82;101119.25;5085376;28;20062;-73
2021/12/13 09:41:33;;;;;;;55.53;19.15;;;;;;;1.56;58.43;101124.31;5107011;28;20052;-74
2021/12/13 09:44:06;;;;;;;49.80;19.58;;;;;;;1.60;58.57;101131.16;5109367;28;20131;-74
2021/12/13 09:46:39;;;;;;;48.92;20.65;;;;;;;1.63;58.51;101131.09;5111496;28;20151;-74
2021/12/13 09:49:15;;;;;;;53.03;20.58;;;;;;;1.62;58.38;101124.19;5112935;28;20085;-76
2021/12/13 09:51:44;;;;;;;;;;;;;;;1.79;58.37;101126.41;5111669;28;20526;-72
2021/12/13 09:54:16;;;;;;;48.63;16.45;;;;;;;1.69;58.33;101130.09;5111451;28;19926;-76
2021/12/13 09:56:49;;;;;;;40.35;17.25;;;;;;;1.69;58.37;101130.09;5109719;28;20108;-72
2021/12/13 09:59:22;;;;;;;38.85;17.95;;;;;;;1.70;58.38;101127.47;5109195;28;20044;-73
2021/12/13 10:01:51;;;;;;;50.72;18.30;;;;;;;1.74;58.47;101120.44;5095872;28;20634;-72
2021/12/13 10:04:25;;;;;;;42.00;20.23;;;;;;;1.82;58.35;101122.88;5108312;28;20135;-73
2021/12/13 10:06:58;;;;;;;44.45;19.02;;;;;;;1.86;57.93;101121.94;5108958;28;20047;-74
2021/12/13 10:09:29;;;;;;;53.10;16.83;;;;;;;1.83;57.86;101130.66;5086983;28;20119;-74
2021/12/13 10:12:01;;;;;;;60.90;24.85;;;;;;;1.75;58.05;101132.59;5087807;28;20131;-75
2021/12/13 10:14:31;;;;;;;52.65;20.65;;;;;;;1.75;57.91;101134.31;5109748;27;20124;-73
2021/12/13 10:16:58;;;;;;;52.85;20.58;;;;;;;1.87;57.67;101139.25;5125159;27;20047;-73
2021/12/13 10:19:32;;;;;;;44.83;19.02;;;;;;;1.97;57.63;101137.31;5127247;27;20079;-72
2021/12/13 10:22:02;;;;;;;37.10;18.15;;;;;;;2.01;57.51;101136.34;5125988;27;20073;-73
2021/12/13 10:24:32;;;;;;;52.00;25.02;;;;;;;2.01;57.62;101142.41;5127644;27;20670;-73
2021/12/13 10:27:01;;;;;;;46.63;19.00;;;;;;;1.79;57.93;101136.84;5129868;27;20069;-76
2021/12/13 10:29:29;;;;;;;62.17;20.65;;;;;;;1.61;58.04;101137.25;5131584;27;20126;-75
2021/12/13 10:32:02;;;;;;;50.67;17.92;;;;;;;1.50;58.30;101140.91;5128328;27;20363;-75
2021/12/13 10:34:34;;;;;;;40.00;17.70;;;;;;;1.53;58.34;101132.16;5145103;27;20058;-74
2021/12/13 10:37:06;;;;;;;50.67;19.20;;;;;;;1.46;58.30;101133.19;5145902;27;20122;-75
2021/12/13 10:39:38;;;;;;;60.55;22.42;;;;;;;1.44;58.34;101137.56;5151525;27;20272;-76
2021/12/13 10:42:10;;;;;;;42.78;20.05;;;;;;;1.44;58.49;101134.97;5153895;27;20051;-76
2021/12/13 10:44:43;;;;;;;53.63;20.58;;;;;;;1.53;58.43;101134.78;5148570;27;20039;-76
2021/12/13 10:47:14;;;;;;;46.65;20.08;;;;;;;1.64;58.07;101131.94;5134636;27;20051;-75
2021/12/13 10:49:48;;;;;;;52.05;20.95;;;;;;;1.72;57.93;101125.69;5137976;27;20422;-76
2021/12/13 10:52:22;;;;;;;51.08;19.88;;;;;;;1.69;57.93;101135.31;5136523;27;20047;-76
2021/12/13 10:54:53;;;;;;;55.42;21.38;;;;;;;1.50;58.38;101129.66;5138224;27;20082;-77
2021/12/13 10:57:24;;;;;;;47.85;20.20;;;;;;;1.37;58.68;101129.06;5136263;27;20464;-74
2021/12/13 10:59:51;;;;;;;72.93;24.95;;;;;;;1.38;58.73;101135.97;5137411;27;20054;-76
2021/12/13 11:02:23;;;;;;;62.78;28.25;;;;;;;1.57;58.47;101131.25;5141435;27;20456;-75
2021/12/13 11:04:56;;;;;;;61.00;24.05;;;;;;;1.74;58.33;101124.81;5134554;27;20086;-74
2021/12/13 11:07:24;;;;;;;62.10;23.73;;;;;;;1.94;58.02;101125.22;5132753;27;20043;-78
2021/12/13 11:09:53;;;;;;;68.05;22.42;;;;;;;2.08;57.60;101125.75;5133305;27;20164;-76
2021/12/13 11:12:25;;;;;;;68.38;22.20;;;;;;;2.01;57.84;101124.19;5136147;27;20138;-75
2021/12/13 11:14:57;;;;;;;69.97;24.17;;;;;;;1.87;57.76;101131.44;5139119;27;20051;-75
2021/12/13 11:17:27;;;;;;;59.35;23.40;;;;;;;1.84;58.02;101128.94;5135302;27;20067;-75
2021/12/13 11:20:06;;;;;;;64.57;22.00;;;;;;;1.92;57.92;101124.41;5134635;27;20047;-75
2021/12/13 11:22:36;;;;;;;76.13;24.13;;;;;;;1.93;57.82;101123.50;5155919;27;20122;-75
2021/12/13 11:25:09;;;;;;;62.97;24.40;;;;;;;1.90;57.70;101128.78;5160598;27;20564;-76
2021/12/13 11:27:38;;;;;;;62.47;24.83;;;;;;;2.00;57.74;101122.47;5159416;27;20106;-76
2021/12/13 11:30:09;;;;;;;65.05;19.95;;;;;;;1.98;57.58;101113.84;5140477;27;20051;-74
2021/12/13 11:33:22;;;;;;;62.00;23.58;;;;;;;1.76;58.21;101103.03;5161296;27;20422;-78
2021/12/13 11:36:30;;;;;;;58.28;21.27;;;;;;;1.66;58.21;101101.53;5156979;27;20118;-76
2021/12/13 11:39:34;;;;;;;66.65;21.23;;;;;;;1.54;58.58;101110.47;5157347;27;20079;-77
2021/12/13 11:42:21;;;;;;;58.80;24.42;;;;;;;1.54;58.63;101110.47;5175031;27;20039;-76
2021/12/13 11:45:09;;;;;;;75.78;23.50;;;;;;;1.62;58.52;101111.19;5121564;27;20034;-76
2021/12/13 11:48:11;;;;;;;80.65;26.58;;;;;;;1.63;58.58;101109.41;5170242;27;20050;-76